Time;durP1;ratioP1;P1;durP2;ratioP2;P2;SDS_P1;SDS_P2;PMS_P1;PMS_P2;Temp;Humidity;BMP_temperature;BMP_pressure;BME280_temperature;BME280_humidity;BME280_pressure;Samples;Min_cycle;Max_cycle;Signal;HPM_P1;HPM_P2
2023/05/18 00:02:41;;;;;;;1.50;1.40;;;;;;;;;;6214492;28;20302;-78
2023/05/18 00:05:48;;;;;;;1.45;1.00;;;;;;;;;;6213108;28;20600;-78
2023/05/18 00:08:53;;;;;;;0.90;0.90;;;;;;;;;;6212790;28;20337;-77
2023/05/18 00:11:58;;;;;;;1.20;0.98;;;;;;;;;;6234361;28;20296;-78
2023/05/18 00:15:04;;;;;;;0.85;0.85;;;;;;;;;;6237429;28;20324;-78
2023/05/18 00:18:13;;;;;;;1.23;1.10;;;;;;;;;;6237179;28;20292;-76
2023/05/18 00:21:18;;;;;;;1.23;1.23;;;;;;;;;;6237639;28;20548;-75
2023/05/18 00:24:23;;;;;;;0.93;0.93;;;;;;;;;;6236895;28;20480;-76
2023/05/18 00:27:28;;;;;;;1.13;1.00;;;;;;;;;;6237344;28;20316;-78
2023/05/18 00:30:33;;;;;;;0.90;0.90;;;;;;;;;;6235229;28;20297;-79
2023/05/18 00:33:40;;;;;;;2.47;0.90;;;;;;;;;;6236262;28;20285;-78
2023/05/18 00:36:45;;;;;;;0.90;0.90;;;;;;;;;;6237436;28;20312;-79
2023/05/18 00:39:50;;;;;;;0.90;0.90;;;;;;;;;;6214323;28;20297;-78
2023/05/18 00:42:55;;;;;;;1.48;0.80;;;;;;;;;;6211560;28;20294;-78
2023/05/18 00:46:00;;;;;;;1.20;1.00;;;;;;;;;;6210147;28;20297;-78
2023/05/18 00:49:09;;;;;;;0.90;0.90;;;;;;;;;;6210522;28;20301;-77
2023/05/18 00:52:15;;;;;;;0.85;0.85;;;;;;;;;;6212480;28;20289;-79
2023/05/18 00:55:20;;;;;;;0.80;0.80;;;;;;;;;;6210412;28;20301;-79
2023/05/18 00:58:26;;;;;;;0.80;0.80;;;;;;;;;;6211210;28;20289;-78
2023/05/18 01:01:34;;;;;;;2.05;0.80;;;;;;;;;;6212512;28;20289;-77
2023/05/18 01:04:41;;;;;;;0.93;0.93;;;;;;;;;;6210481;28;20296;-78
2023/05/18 01:07:47;;;;;;;0.95;0.95;;;;;;;;;;6212981;28;20310;-78
2023/05/18 01:10:56;;;;;;;1.05;0.80;;;;;;;;;;6224299;28;20309;-78
2023/05/18 01:14:06;;;;;;;1.58;1.00;;;;;;;;;;6236740;28;20304;-78
2023/05/18 01:17:21;;;;;;;2.22;0.90;;;;;;;;;;6248262;28;20312;-77
2023/05/18 01:20:36;;;;;;;1.05;1.00;;;;;;;;;;6242856;28;20483;-77
2023/05/18 01:23:57;;;;;;;3.13;1.13;;;;;;;;;;6241832;28;20285;-77
2023/05/18 01:27:06;;;;;;;0.82;0.82;;;;;;;;;;6236389;28;20301;-77
2023/05/18 01:30:12;;;;;;;1.08;1.08;;;;;;;;;;6235698;28;20304;-78
2023/05/18 01:33:18;;;;;;;0.90;0.90;;;;;;;;;;6235460;28;20296;-78
2023/05/18 01:36:23;;;;;;;0.90;0.90;;;;;;;;;;6235370;28;20478;-77
2023/05/18 01:39:30;;;;;;;2.47;1.00;;;;;;;;;;6216406;28;20296;-77
2023/05/18 01:42:43;;;;;;;1.13;1.02;;;;;;;;;;6209825;28;20292;-79
2023/05/18 01:45:51;;;;;;;3.50;0.82;;;;;;;;;;6209509;28;20305;-78
2023/05/18 01:49:01;;;;;;;0.80;0.80;;;;;;;;;;6209529;28;20304;-78
2023/05/18 01:52:11;;;;;;;0.80;0.80;;;;;;;;;;6209704;28;20321;-78
2023/05/18 01:55:18;;;;;;;3.25;0.85;;;;;;;;;;6209468;28;20297;-79
2023/05/18 01:58:25;;;;;;;0.90;0.90;;;;;;;;;;6184462;28;20289;-78
2023/05/18 02:01:30;;;;;;;3.00;0.90;;;;;;;;;;6185285;28;20289;-79
2023/05/18 02:04:35;;;;;;;2.45;1.00;;;;;;;;;;6184877;28;20294;-78
2023/05/18 02:07:42;;;;;;;0.80;0.80;;;;;;;;;;6185095;28;20516;-78
2023/05/18 02:10:48;;;;;;;0.90;0.90;;;;;;;;;;6185093;28;20297;-78
2023/05/18 02:13:54;;;;;;;2.45;0.90;;;;;;;;;;6185299;28;20475;-78
2023/05/18 02:17:00;;;;;;;3.40;1.08;;;;;;;;;;6186393;28;20297;-78
2023/05/18 02:20:07;;;;;;;10.73;1.67;;;;;;;;;;6202044;28;20293;-78
2023/05/18 02:23:13;;;;;;;2.78;1.10;;;;;;;;;;6209475;28;20289;-78
2023/05/18 02:26:18;;;;;;;0.90;0.90;;;;;;;;;;6211017;28;20296;-77
2023/05/18 02:29:30;;;;;;;0.90;0.90;;;;;;;;;;6208845;28;20301;-79
2023/05/18 02:32:37;;;;;;;1.20;1.15;;;;;;;;;;6210632;28;20301;-79
2023/05/18 02:35:43;;;;;;;1.23;0.90;;;;;;;;;;6209020;28;20316;-78
2023/05/18 02:38:48;;;;;;;1.63;0.80;;;;;;;;;;6221251;28;20305;-77
2023/05/18 02:41:54;;;;;;;1.17;1.00;;;;;;;;;;6233346;28;20296;-78
2023/05/18 02:45:01;;;;;;;0.95;0.95;;;;;;;;;;6233694;28;20296;-78
2023/05/18 02:48:09;;;;;;;1.15;1.02;;;;;;;;;;6233452;28;20289;-77
2023/05/18 02:51:15;;;;;;;1.55;1.05;;;;;;;;;;6236133;28;20387;-78
2023/05/18 02:54:21;;;;;;;6.43;1.35;;;;;;;;;;6238267;28;20304;-78
2023/05/18 02:57:26;;;;;;;7.22;1.10;;;;;;;;;;6238003;28;20296;-78
2023/05/18 03:00:43;;;;;;;1.95;0.80;;;;;;;;;;6233208;28;20297;-77
2023/05/18 03:03:48;;;;;;;1.35;0.80;;;;;;;;;;6219393;28;20296;-78
2023/05/18 03:06:56;;;;;;;3.80;1.10;;;;;;;;;;6226071;28;20292;-78
2023/05/18 03:10:03;;;;;;;4.47;0.93;;;;;;;;;;6216125;28;20332;-79
2023/05/18 03:13:11;;;;;;;0.90;0.90;;;;;;;;;;6237887;28;20596;-77
2023/05/18 03:16:18;;;;;;;1.27;1.17;;;;;;;;;;6239352;28;20292;-77
2023/05/18 03:19:25;;;;;;;2.25;1.02;;;;;;;;;;6228223;28;20289;-77
2023/05/18 03:22:31;;;;;;;1.92;1.10;;;;;;;;;;6214110;28;20543;-77
2023/05/18 03:25:37;;;;;;;1.85;1.00;;;;;;;;;;6214544;28;20273;-79
2023/05/18 03:28:43;;;;;;;1.10;1.00;;;;;;;;;;6212904;28;20384;-78
2023/05/18 03:31:50;;;;;;;5.47;1.20;;;;;;;;;;6214312;28;20329;-78
2023/05/18 03:34:55;;;;;;;1.63;0.93;;;;;;;;;;6213086;28;20538;-80
2023/05/18 03:38:01;;;;;;;1.17;1.05;;;;;;;;;;6230018;28;20581;-79
2023/05/18 03:41:06;;;;;;;2.05;1.10;;;;;;;;;;6213040;28;20301;-78
2023/05/18 03:44:13;;;;;;;1.33;1.20;;;;;;;;;;6212826;28;20309;-78
2023/05/18 03:47:21;;;;;;;0.90;0.90;;;;;;;;;;6215151;28;20297;-79
2023/05/18 03:50:27;;;;;;;2.88;1.23;;;;;;;;;;6213684;28;20300;-78
2023/05/18 03:53:35;;;;;;;3.30;0.90;;;;;;;;;;6212062;28;20292;-79
2023/05/18 03:56:40;;;;;;;0.90;0.90;;;;;;;;;;6214043;28;20292;-78
2023/05/18 03:59:45;;;;;;;1.02;1.00;;;;;;;;;;6211784;28;20316;-77
2023/05/18 04:02:52;;;;;;;2.13;1.20;;;;;;;;;;6212679;28;20344;-77
2023/05/18 04:06:01;;;;;;;10.02;1.60;;;;;;;;;;6212704;28;20561;-77
2023/05/18 04:09:06;;;;;;;0.82;0.82;;;;;;;;;;6211564;28;20293;-77
2023/05/18 04:12:12;;;;;;;1.00;1.00;;;;;;;;;;6234786;28;20312;-77
2023/05/18 04:15:17;;;;;;;0.90;0.90;;;;;;;;;;6235853;28;20292;-77
2023/05/18 04:18:26;;;;;;;7.35;1.20;;;;;;;;;;6237342;28;20316;-77
2023/05/18 04:21:34;;;;;;;1.45;1.10;;;;;;;;;;6237942;28;20305;-77
2023/05/18 04:24:40;;;;;;;1.65;0.95;;;;;;;;;;6236870;28;20296;-78
2023/05/18 04:27:47;;;;;;;1.90;1.05;;;;;;;;;;6235908;28;20295;-78
2023/05/18 04:30:55;;;;;;;4.72;1.20;;;;;;;;;;6236659;28;20288;-78
2023/05/18 04:34:01;;;;;;;1.98;1.00;;;;;;;;;;6236964;28;20469;-77
2023/05/18 04:37:07;;;;;;;1.63;1.13;;;;;;;;;;6237459;28;20475;-78
2023/05/18 04:40:15;;;;;;;0.90;0.90;;;;;;;;;;6211895;28;20593;-77
2023/05/18 04:43:22;;;;;;;1.50;1.10;;;;;;;;;;6186366;28;20297;-78
2023/05/18 04:46:28;;;;;;;1.88;1.08;;;;;;;;;;6187546;28;20281;-78
2023/05/18 04:49:35;;;;;;;1.00;0.98;;;;;;;;;;6187054;28;20297;-78
2023/05/18 04:52:40;;;;;;;0.98;0.90;;;;;;;;;;6189191;28;20401;-76
2023/05/18 04:55:48;;;;;;;1.10;1.10;;;;;;;;;;6187129;28;20385;-77
2023/05/18 04:58:58;;;;;;;1.30;1.30;;;;;;;;;;6200142;28;20475;-77
2023/05/18 05:02:03;;;;;;;2.25;1.02;;;;;;;;;;6213148;28;20301;-78
2023/05/18 05:05:10;;;;;;;1.20;0.90;;;;;;;;;;6212306;28;20300;-77
2023/05/18 05:08:16;;;;;;;1.02;1.00;;;;;;;;;;6211078;28;20483;-78
2023/05/18 05:11:22;;;;;;;2.97;1.00;;;;;;;;;;6211499;28;20298;-78
2023/05/18 05:14:27;;;;;;;1.60;0.95;;;;;;;;;;6209368;28;20300;-77
2023/05/18 05:17:32;;;;;;;2.42;1.20;;;;;;;;;;6210317;28;20309;-78
2023/05/18 05:20:39;;;;;;;3.83;1.30;;;;;;;;;;6210534;28;20309;-77
2023/05/18 05:23:45;;;;;;;1.00;1.00;;;;;;;;;;6210262;28;20293;-77
2023/05/18 05:26:50;;;;;;;1.08;1.08;;;;;;;;;;6210915;28;20581;-78
2023/05/18 05:29:55;;;;;;;1.20;1.20;;;;;;;;;;6209957;28;20445;-77
2023/05/18 05:33:00;;;;;;;2.60;1.15;;;;;;;;;;6209962;28;20296;-78
2023/05/18 05:36:08;;;;;;;1.08;1.08;;;;;;;;;;6210817;28;20288;-77
2023/05/18 05:39:14;;;;;;;1.02;0.98;;;;;;;;;;6226978;28;20486;-79
2023/05/18 05:42:19;;;;;;;1.30;1.20;;;;;;;;;;6236479;28;20308;-80
2023/05/18 05:45:27;;;;;;;2.08;1.20;;;;;;;;;;6234517;28;20300;-79
2023/05/18 05:48:35;;;;;;;1.20;1.10;;;;;;;;;;6234244;28;20288;-78
2023/05/18 05:51:42;;;;;;;0.98;0.93;;;;;;;;;;6235901;28;20296;-78
2023/05/18 05:54:47;;;;;;;1.17;1.00;;;;;;;;;;6234241;28;20300;-79
2023/05/18 05:57:52;;;;;;;1.00;1.00;;;;;;;;;;6234252;28;20315;-78
2023/05/18 06:00:58;;;;;;;1.17;1.17;;;;;;;;;;6235013;28;20580;-78
2023/05/18 06:04:05;;;;;;;4.32;0.95;;;;;;;;;;6233442;28;20304;-77
2023/05/18 06:07:13;;;;;;;0.95;0.90;;;;;;;;;;6235737;28;20297;-78
2023/05/18 06:10:20;;;;;;;0.80;0.80;;;;;;;;;;6228297;28;20453;-78
2023/05/18 06:13:25;;;;;;;2.00;1.02;;;;;;;;;;6209103;28;20289;-78
2023/05/18 06:16:32;;;;;;;3.28;1.00;;;;;;;;;;6211226;28;20273;-79
2023/05/18 06:19:38;;;;;;;1.75;1.05;;;;;;;;;;6209027;28;20300;-77
2023/05/18 06:22:44;;;;;;;1.38;1.02;;;;;;;;;;6210497;28;20294;-80
2023/05/18 06:26:08;;;;;;;2.38;1.40;;;;;;;;;;6211240;28;20292;-77
2023/05/18 06:29:52;;;;;;;1.00;1.00;;;;;;;;;;6184066;28;20306;-77
2023/05/18 06:33:14;;;;;;;1.23;1.13;;;;;;;;;;6168413;28;20293;-78
2023/05/18 06:36:20;;;;;;;4.53;1.60;;;;;;;;;;6185882;28;20309;-78
2023/05/18 06:39:30;;;;;;;3.53;1.20;;;;;;;;;;6201810;28;20320;-79
2023/05/18 06:42:36;;;;;;;3.60;1.00;;;;;;;;;;6211268;28;20296;-77
2023/05/18 06:46:01;;;;;;;1.25;1.10;;;;;;;;;;6209882;28;20292;-79
2023/05/18 06:49:11;;;;;;;2.30;1.10;;;;;;;;;;6209382;28;20289;-78
2023/05/18 06:52:16;;;;;;;2.65;1.10;;;;;;;;;;6210645;28;20293;-76
2023/05/18 06:55:24;;;;;;;1.08;1.08;;;;;;;;;;6208185;28;20296;-75
2023/05/18 06:58:29;;;;;;;1.55;0.95;;;;;;;;;;6208520;28;20313;-75
2023/05/18 07:01:38;;;;;;;1.45;0.90;;;;;;;;;;6208655;28;20269;-74
2023/05/18 07:04:43;;;;;;;1.83;1.08;;;;;;;;;;6208530;28;20293;-75
2023/05/18 07:07:48;;;;;;;1.00;1.00;;;;;;;;;;6209939;28;20308;-77
2023/05/18 07:10:56;;;;;;;2.17;1.00;;;;;;;;;;6222959;28;20304;-76
2023/05/18 07:14:01;;;;;;;3.17;0.80;;;;;;;;;;6233637;28;20304;-77
2023/05/18 07:17:07;;;;;;;3.47;1.05;;;;;;;;;;6237960;28;20292;-76
2023/05/18 07:20:13;;;;;;;1.00;1.00;;;;;;;;;;6237694;28;20305;-77
2023/05/18 07:23:18;;;;;;;1.13;0.90;;;;;;;;;;6238760;28;20292;-77
2023/05/18 07:26:25;;;;;;;1.40;1.10;;;;;;;;;;6238842;28;20300;-79
2023/05/18 07:29:31;;;;;;;1.05;0.98;;;;;;;;;;6235773;28;20304;-76
2023/05/18 07:32:36;;;;;;;3.80;0.90;;;;;;;;;;6234027;28;20293;-78
2023/05/18 07:35:41;;;;;;;1.10;1.10;;;;;;;;;;6234368;28;20300;-77
2023/05/18 07:38:46;;;;;;;1.88;1.77;;;;;;;;;;6226304;28;20486;-79
2023/05/18 07:41:53;;;;;;;1.05;1.00;;;;;;;;;;6214858;28;20297;-76
2023/05/18 07:45:05;;;;;;;0.90;0.90;;;;;;;;;;6214930;28;20300;-77
2023/05/18 07:48:12;;;;;;;1.00;1.00;;;;;;;;;;6214113;28;20304;-77
2023/05/18 07:51:18;;;;;;;1.63;0.90;;;;;;;;;;6214254;28;20288;-77
2023/05/18 07:54:25;;;;;;;15.63;1.40;;;;;;;;;;6212162;28;20297;-76
2023/05/18 07:57:32;;;;;;;1.10;1.10;;;;;;;;;;6213267;28;20301;-77
2023/05/18 08:00:37;;;;;;;3.53;1.02;;;;;;;;;;6213613;28;20293;-77
2023/05/18 08:03:42;;;;;;;1.08;0.90;;;;;;;;;;6213225;28;20297;-75
2023/05/18 08:06:48;;;;;;;1.27;1.10;;;;;;;;;;6213721;28;20293;-76
2023/05/18 08:09:53;;;;;;;0.70;0.70;;;;;;;;;;6216620;28;20510;-77
2023/05/18 08:13:02;;;;;;;3.80;1.20;;;;;;;;;;6236997;28;20309;-76
2023/05/18 08:16:07;;;;;;;0.80;0.80;;;;;;;;;;6237980;28;20288;-76
2023/05/18 08:19:16;;;;;;;2.15;0.98;;;;;;;;;;6237436;28;20376;-74
2023/05/18 08:22:21;;;;;;;1.02;1.02;;;;;;;;;;6235276;28;20276;-75
2023/05/18 08:25:27;;;;;;;3.78;1.08;;;;;;;;;;6237636;28;20296;-76
2023/05/18 08:28:33;;;;;;;2.65;1.15;;;;;;;;;;6236687;28;20322;-74
2023/05/18 08:31:39;;;;;;;1.92;1.00;;;;;;;;;;6237232;28;20272;-76
2023/05/18 08:34:44;;;;;;;8.27;1.23;;;;;;;;;;6236568;28;20305;-76
2023/05/18 08:37:50;;;;;;;0.93;0.93;;;;;;;;;;6236811;28;20480;-73
2023/05/18 08:41:02;;;;;;;1.75;0.93;;;;;;;;;;6236817;28;20305;-77
2023/05/18 08:44:14;;;;;;;1.00;0.80;;;;;;;;;;6236432;28;20300;-77
2023/05/18 08:47:24;;;;;;;1.00;0.90;;;;;;;;;;6237481;28;20296;-78
2023/05/18 08:50:31;;;;;;;5.25;0.98;;;;;;;;;;6236225;28;20472;-76
2023/05/18 08:53:38;;;;;;;1.27;1.17;;;;;;;;;;6236436;28;20473;-76
2023/05/18 08:56:45;;;;;;;3.40;1.15;;;;;;;;;;6237344;28;20292;-78
2023/05/18 08:59:53;;;;;;;1.27;0.90;;;;;;;;;;6236383;28;20316;-76
2023/05/18 09:02:58;;;;;;;4.68;1.10;;;;;;;;;;6235867;28;20296;-78
2023/05/18 09:06:04;;;;;;;1.42;1.20;;;;;;;;;;6237191;28;20292;-79
2023/05/18 09:09:10;;;;;;;1.13;1.10;;;;;;;;;;6236612;28;20597;-76
2023/05/18 09:12:17;;;;;;;1.10;1.10;;;;;;;;;;6214222;28;20293;-78
2023/05/18 09:15:24;;;;;;;1.77;1.10;;;;;;;;;;6212452;28;20293;-77
2023/05/18 09:18:29;;;;;;;0.95;0.95;;;;;;;;;;6211970;28;20293;-78
2023/05/18 09:21:35;;;;;;;3.58;1.00;;;;;;;;;;6212330;28;20293;-77
2023/05/18 09:24:40;;;;;;;1.00;1.00;;;;;;;;;;6211547;28;20300;-76
2023/05/18 09:27:45;;;;;;;0.70;0.70;;;;;;;;;;6211589;28;20479;-77
2023/05/18 09:30:53;;;;;;;5.57;1.10;;;;;;;;;;6212080;28;20293;-78
2023/05/18 09:34:00;;;;;;;1.02;1.02;;;;;;;;;;6211274;28;20298;-78
2023/05/18 09:37:05;;;;;;;2.53;1.30;;;;;;;;;;6210850;28;20296;-78
2023/05/18 09:40:12;;;;;;;2.17;1.00;;;;;;;;;;6235361;28;20316;-78
2023/05/18 09:43:18;;;;;;;2.60;1.58;;;;;;;;;;6235000;28;20293;-77
2023/05/18 09:46:25;;;;;;;3.22;1.40;;;;;;;;;;6235021;28;20359;-77
2023/05/18 09:49:31;;;;;;;1.02;1.00;;;;;;;;;;6235659;28;20532;-78
2023/05/18 09:52:42;;;;;;;1.27;1.27;;;;;;;;;;6234736;28;20340;-78
2023/05/18 09:55:49;;;;;;;1.20;1.10;;;;;;;;;;6236629;28;20292;-78
2023/05/18 09:58:55;;;;;;;2.03;0.90;;;;;;;;;;6234103;28;20591;-77
2023/05/18 10:02:04;;;;;;;1.75;1.13;;;;;;;;;;6235173;28;20301;-77
2023/05/18 10:05:20;;;;;;;1.20;1.10;;;;;;;;;;6233984;28;20292;-77
2023/05/18 10:08:25;;;;;;;1.35;0.93;;;;;;;;;;6235073;28;20288;-78
2023/05/18 10:11:33;;;;;;;4.85;1.30;;;;;;;;;;6217395;28;20422;-78
2023/05/18 10:14:38;;;;;;;2.40;0.95;;;;;;;;;;6210080;28;20392;-77
2023/05/18 10:17:45;;;;;;;1.30;1.05;;;;;;;;;;6210859;28;20289;-78
2023/05/18 10:20:52;;;;;;;0.90;0.90;;;;;;;;;;6213077;28;20305;-77
2023/05/18 10:23:57;;;;;;;1.13;1.10;;;;;;;;;;6203652;28;20289;-79
2023/05/18 10:27:06;;;;;;;1.13;1.08;;;;;;;;;;6210904;28;20322;-79
2023/05/18 10:30:16;;;;;;;0.90;0.90;;;;;;;;;;6210400;28;20297;-79
2023/05/18 10:33:24;;;;;;;2.15;1.10;;;;;;;;;;6210628;28;20289;-79
2023/05/18 10:36:34;;;;;;;3.13;1.20;;;;;;;;;;6210974;28;20297;-78
2023/05/18 10:39:41;;;;;;;3.40;1.23;;;;;;;;;;6210882;28;20296;-78
2023/05/18 10:42:46;;;;;;;5.45;1.17;;;;;;;;;;6210657;28;20292;-78
2023/05/18 10:45:54;;;;;;;0.90;0.90;;;;;;;;;;6210924;28;20288;-78
2023/05/18 10:49:01;;;;;;;1.73;1.10;;;;;;;;;;6210419;28;20301;-78
2023/05/18 10:52:07;;;;;;;1.88;1.10;;;;;;;;;;6209809;28;20305;-77
2023/05/18 10:55:13;;;;;;;1.75;1.00;;;;;;;;;;6209421;28;20593;-77
2023/05/18 10:58:20;;;;;;;1.70;1.60;;;;;;;;;;6200775;28;20582;-79
2023/05/18 11:01:25;;;;;;;1.08;1.08;;;;;;;;;;6185756;28;20388;-79
2023/05/18 11:04:32;;;;;;;1.10;1.10;;;;;;;;;;6186385;28;20386;-78
2023/05/18 11:07:38;;;;;;;2.78;1.20;;;;;;;;;;6186216;28;20429;-77
2023/05/18 11:10:45;;;;;;;7.20;1.40;;;;;;;;;;6208063;28;20333;-78
2023/05/18 11:13:51;;;;;;;0.80;0.80;;;;;;;;;;6238211;28;20296;-77
2023/05/18 11:17:17;;;;;;;5.28;1.70;;;;;;;;;;6239999;28;20304;-80
2023/05/18 11:20:26;;;;;;;1.30;1.10;;;;;;;;;;6239356;28;20296;-78
2023/05/18 11:23:32;;;;;;;1.55;1.10;;;;;;;;;;6239064;28;20296;-78
2023/05/18 11:26:39;;;;;;;6.47;1.30;;;;;;;;;;6239748;28;20296;-77
2023/05/18 11:29:47;;;;;;;1.30;1.17;;;;;;;;;;6239602;28;20590;-77
2023/05/18 11:33:09;;;;;;;6.25;1.13;;;;;;;;;;6238708;28;20296;-77
2023/05/18 11:36:19;;;;;;;1.25;1.05;;;;;;;;;;6238225;28;20305;-79
2023/05/18 11:39:24;;;;;;;1.65;1.05;;;;;;;;;;6221118;28;20309;-78
2023/05/18 11:42:33;;;;;;;2.42;1.00;;;;;;;;;;6213780;28;20301;-78
2023/05/18 11:45:53;;;;;;;3.47;1.13;;;;;;;;;;6213051;28;20289;-80
2023/05/18 11:49:04;;;;;;;1.40;1.20;;;;;;;;;;6214187;28;20585;-76
2023/05/18 11:52:18;;;;;;;2.72;1.05;;;;;;;;;;6213769;28;20297;-77
2023/05/18 11:55:23;;;;;;;3.35;1.10;;;;;;;;;;6212789;28;20305;-77
2023/05/18 11:58:31;;;;;;;3.58;1.17;;;;;;;;;;6213788;28;20305;-77
2023/05/18 12:01:36;;;;;;;1.55;1.00;;;;;;;;;;6213996;28;20293;-78
2023/05/18 12:04:45;;;;;;;4.13;1.30;;;;;;;;;;6213894;28;20304;-78
2023/05/18 12:07:54;;;;;;;1.95;1.02;;;;;;;;;;6211905;28;20611;-78
2023/05/18 12:11:01;;;;;;;1.05;1.00;;;;;;;;;;6226171;28;20584;-78
2023/05/18 12:14:06;;;;;;;5.15;1.45;;;;;;;;;;6236790;28;20292;-80
2023/05/18 12:17:13;;;;;;;1.00;1.00;;;;;;;;;;6238004;28;20576;-77
2023/05/18 12:20:19;;;;;;;2.40;1.52;;;;;;;;;;6236956;28;20300;-78
2023/05/18 12:23:37;;;;;;;3.95;1.23;;;;;;;;;;6236239;28;20296;-79
2023/05/18 12:26:45;;;;;;;0.98;0.98;;;;;;;;;;6237672;28;20288;-77
2023/05/18 12:29:50;;;;;;;1.35;1.30;;;;;;;;;;6236832;28;20315;-76
2023/05/18 12:32:57;;;;;;;1.52;1.52;;;;;;;;;;6237203;28;20295;-77
2023/05/18 12:36:02;;;;;;;1.17;1.10;;;;;;;;;;6237537;28;20292;-78
2023/05/18 12:39:08;;;;;;;1.15;1.15;;;;;;;;;;6222401;28;20293;-79
2023/05/18 12:42:14;;;;;;;4.68;1.10;;;;;;;;;;6213009;28;20300;-77
2023/05/18 12:45:21;;;;;;;1.38;1.10;;;;;;;;;;6213122;28;20305;-78
2023/05/18 12:48:26;;;;;;;1.23;1.00;;;;;;;;;;6214087;28;20321;-78
2023/05/18 12:51:35;;;;;;;1.55;1.10;;;;;;;;;;6217309;28;20289;-77
2023/05/18 12:54:57;;;;;;;1.05;1.05;;;;;;;;;;6214238;28;20593;-77
2023/05/18 12:58:03;;;;;;;2.78;0.90;;;;;;;;;;6212288;28;20289;-79
2023/05/18 13:01:11;;;;;;;0.90;0.90;;;;;;;;;;6213063;28;20297;-79
2023/05/18 13:04:16;;;;;;;0.98;0.98;;;;;;;;;;6213020;28;20305;-77
2023/05/18 13:07:21;;;;;;;1.48;1.10;;;;;;;;;;6212188;28;20272;-77
2023/05/18 13:10:31;;;;;;;3.88;1.20;;;;;;;;;;6211621;28;20291;-78
2023/05/18 13:13:36;;;;;;;2.45;1.08;;;;;;;;;;6212115;28;20304;-77
2023/05/18 13:16:45;;;;;;;2.95;1.00;;;;;;;;;;6212414;28;20312;-76
2023/05/18 13:19:57;;;;;;;0.90;0.90;;;;;;;;;;6211922;28;20293;-79
2023/05/18 13:23:04;;;;;;;0.90;0.90;;;;;;;;;;6211805;28;20289;-78
2023/05/18 13:26:13;;;;;;;1.58;1.00;;;;;;;;;;6211385;28;20561;-78
2023/05/18 13:29:18;;;;;;;1.10;1.10;;;;;;;;;;6210289;28;20309;-78
2023/05/18 13:32:25;;;;;;;0.90;0.90;;;;;;;;;;6212214;28;20580;-79
2023/05/18 13:35:30;;;;;;;2.05;1.00;;;;;;;;;;6210184;28;20309;-79
2023/05/18 13:38:36;;;;;;;3.50;0.90;;;;;;;;;;6222157;28;20300;-79
2023/05/18 13:41:42;;;;;;;1.10;0.95;;;;;;;;;;6236244;28;20296;-77
2023/05/18 13:44:48;;;;;;;1.33;1.10;;;;;;;;;;6235572;28;20304;-78
2023/05/18 13:47:53;;;;;;;3.08;1.20;;;;;;;;;;6234654;28;20576;-79
2023/05/18 13:50:58;;;;;;;1.13;1.02;;;;;;;;;;6235433;28;20580;-77
2023/05/18 13:54:03;;;;;;;1.00;1.00;;;;;;;;;;6234912;28;20296;-79
2023/05/18 13:57:12;;;;;;;3.60;1.10;;;;;;;;;;6235492;28;20292;-79
2023/05/18 14:00:19;;;;;;;0.90;0.90;;;;;;;;;;6234940;28;20308;-78
2023/05/18 14:03:24;;;;;;;1.17;0.90;;;;;;;;;;6233836;28;20485;-78
2023/05/18 14:06:30;;;;;;;1.58;1.10;;;;;;;;;;6235505;28;20288;-78
2023/05/18 14:09:36;;;;;;;0.93;0.93;;;;;;;;;;6233276;28;20296;-75
2023/05/18 14:12:42;;;;;;;2.00;1.10;;;;;;;;;;6210790;28;20376;-78
2023/05/18 14:15:47;;;;;;;1.13;1.13;;;;;;;;;;6209831;28;20304;-77
2023/05/18 14:18:52;;;;;;;1.60;1.10;;;;;;;;;;6210641;28;20477;-78
2023/05/18 14:21:57;;;;;;;1.00;1.00;;;;;;;;;;6211034;28;20292;-78
2023/05/18 14:25:02;;;;;;;0.95;0.95;;;;;;;;;;6210775;28;20306;-78
2023/05/18 14:28:10;;;;;;;0.90;0.90;;;;;;;;;;6210269;28;20309;-77
2023/05/18 14:31:15;;;;;;;1.95;1.00;;;;;;;;;;6210540;28;20289;-78
2023/05/18 14:34:20;;;;;;;1.40;1.30;;;;;;;;;;6210634;28;20296;-77
2023/05/18 14:37:25;;;;;;;0.90;0.90;;;;;;;;;;6210896;28;20277;-77
2023/05/18 14:40:30;;;;;;;1.95;0.90;;;;;;;;;;6233854;28;20272;-77
2023/05/18 14:43:37;;;;;;;2.47;0.80;;;;;;;;;;6234656;28;20307;-77
2023/05/18 14:46:42;;;;;;;1.05;1.05;;;;;;;;;;6236131;28;20461;-78
2023/05/18 14:49:47;;;;;;;0.90;0.90;;;;;;;;;;6239135;28;20316;-78
2023/05/18 14:52:53;;;;;;;1.83;1.23;;;;;;;;;;6239062;28;20312;-78
2023/05/18 14:56:02;;;;;;;1.77;1.10;;;;;;;;;;6239770;28;20299;-78
2023/05/18 14:59:11;;;;;;;0.80;0.80;;;;;;;;;;6238989;28;20313;-78
2023/05/18 15:02:16;;;;;;;3.10;1.13;;;;;;;;;;6240229;28;20307;-77
2023/05/18 15:05:22;;;;;;;0.88;0.88;;;;;;;;;;6239655;28;20301;-78
2023/05/18 15:08:27;;;;;;;2.08;0.90;;;;;;;;;;6240245;28;20292;-77
2023/05/18 15:11:32;;;;;;;0.90;0.90;;;;;;;;;;6223463;28;20332;-78
2023/05/18 15:14:38;;;;;;;3.50;1.20;;;;;;;;;;6215463;28;20296;-77
2023/05/18 15:17:44;;;;;;;0.85;0.85;;;;;;;;;;6213475;28;20317;-76
2023/05/18 15:20:49;;;;;;;1.20;0.90;;;;;;;;;;6215083;28;20300;-77
2023/05/18 15:23:54;;;;;;;1.13;1.13;;;;;;;;;;6214140;28;20605;-77
2023/05/18 15:26:59;;;;;;;0.90;0.90;;;;;;;;;;6214694;28;20292;-76
2023/05/18 15:30:10;;;;;;;0.80;0.80;;;;;;;;;;6213859;28;20293;-76
2023/05/18 15:33:15;;;;;;;3.92;3.60;;;;;;;;;;6214006;28;20293;-77
2023/05/18 15:36:20;;;;;;;1.60;1.60;;;;;;;;;;6214647;28;20305;-77
2023/05/18 15:39:26;;;;;;;1.73;1.63;;;;;;;;;;6231138;28;20464;-78
2023/05/18 15:42:32;;;;;;;1.02;1.02;;;;;;;;;;6239160;28;20296;-78
2023/05/18 15:45:38;;;;;;;1.15;1.15;;;;;;;;;;6239131;28;20588;-79
2023/05/18 15:48:44;;;;;;;1.60;1.50;;;;;;;;;;6237467;28;20308;-79
2023/05/18 15:51:49;;;;;;;1.20;1.20;;;;;;;;;;6237325;28;20552;-78
2023/05/18 15:54:54;;;;;;;2.03;1.90;;;;;;;;;;6237788;28;20311;-78
2023/05/18 15:57:59;;;;;;;1.15;1.10;;;;;;;;;;6236873;28;20443;-77
2023/05/18 16:01:06;;;;;;;2.65;2.00;;;;;;;;;;6238119;28;20304;-79
2023/05/18 16:04:14;;;;;;;2.65;1.90;;;;;;;;;;6235811;28;20553;-77
2023/05/18 16:07:20;;;;;;;4.22;1.60;;;;;;;;;;6238244;28;20288;-77
2023/05/18 16:10:25;;;;;;;1.30;1.10;;;;;;;;;;6228909;28;20293;-78
2023/05/18 16:13:30;;;;;;;1.65;1.42;;;;;;;;;;6212964;28;20345;-78
2023/05/18 16:16:37;;;;;;;1.20;1.20;;;;;;;;;;6213700;28;20278;-78
2023/05/18 16:19:42;;;;;;;1.00;1.00;;;;;;;;;;6212976;28;20305;-77
2023/05/18 16:22:48;;;;;;;1.00;1.00;;;;;;;;;;6212740;28;20289;-78
2023/05/18 16:25:53;;;;;;;3.15;1.25;;;;;;;;;;6213126;28;20297;-77
2023/05/18 16:28:58;;;;;;;3.45;1.27;;;;;;;;;;6213019;28;20304;-78
2023/05/18 16:32:05;;;;;;;1.20;1.20;;;;;;;;;;6211560;28;20301;-79
2023/05/18 16:35:10;;;;;;;1.08;1.08;;;;;;;;;;6212863;28;20294;-78
2023/05/18 16:38:15;;;;;;;1.00;1.00;;;;;;;;;;6220298;28;20329;-77
2023/05/18 16:41:21;;;;;;;7.20;4.90;;;;;;;;;;6237203;28;20297;-79
2023/05/18 16:44:26;;;;;;;3.10;2.13;;;;;;;;;;6237375;28;20300;-78
2023/05/18 16:47:33;;;;;;;1.45;1.45;;;;;;;;;;6236864;28;20296;-79
2023/05/18 16:50:38;;;;;;;1.35;1.17;;;;;;;;;;6237352;28;20601;-77
2023/05/18 16:53:43;;;;;;;2.05;1.77;;;;;;;;;;6235219;28;20576;-79
2023/05/18 16:56:48;;;;;;;2.72;1.70;;;;;;;;;;6237177;28;20589;-78
2023/05/18 16:59:53;;;;;;;2.33;1.30;;;;;;;;;;6236826;28;20296;-78
2023/05/18 17:03:01;;;;;;;3.38;1.00;;;;;;;;;;6236577;28;20288;-79
2023/05/18 17:06:08;;;;;;;1.38;1.27;;;;;;;;;;6237332;28;20608;-79
2023/05/18 17:09:15;;;;;;;1.10;1.10;;;;;;;;;;6236393;28;20304;-78
2023/05/18 17:12:20;;;;;;;2.05;1.13;;;;;;;;;;6212942;28;20611;-78
2023/05/18 17:15:25;;;;;;;2.17;1.60;;;;;;;;;;6211548;28;20301;-79
2023/05/18 17:18:32;;;;;;;4.88;1.63;;;;;;;;;;6212086;28;20313;-78
2023/05/18 17:21:37;;;;;;;2.72;1.30;;;;;;;;;;6211852;28;20289;-78
2023/05/18 17:24:42;;;;;;;3.83;1.77;;;;;;;;;;6212017;28;20304;-78
2023/05/18 17:27:47;;;;;;;1.60;1.50;;;;;;;;;;6211835;28;20289;-78
2023/05/18 17:30:52;;;;;;;2.33;2.22;;;;;;;;;;6211669;28;20300;-78
2023/05/18 17:33:59;;;;;;;2.63;1.90;;;;;;;;;;6212253;28;20434;-78
2023/05/18 17:37:06;;;;;;;1.50;1.50;;;;;;;;;;6211126;28;20301;-77
2023/05/18 17:40:13;;;;;;;9.77;1.48;;;;;;;;;;6235205;28;20479;-79
2023/05/18 17:43:19;;;;;;;2.67;1.45;;;;;;;;;;6236346;28;20596;-78
2023/05/18 17:46:24;;;;;;;8.38;1.42;;;;;;;;;;6210895;28;20293;-77
2023/05/18 17:49:31;;;;;;;5.97;1.40;;;;;;;;;;6235597;28;20292;-77
2023/05/18 17:52:36;;;;;;;3.05;1.10;;;;;;;;;;6235676;28;20433;-78
2023/05/18 17:55:45;;;;;;;1.23;1.13;;;;;;;;;;6236154;28;20296;-78
2023/05/18 17:58:50;;;;;;;2.85;1.23;;;;;;;;;;6235664;28;20300;-79
2023/05/18 18:01:55;;;;;;;17.10;1.67;;;;;;;;;;6235315;28;20581;-77
2023/05/18 18:05:02;;;;;;;4.25;1.70;;;;;;;;;;6234419;28;20308;-76
2023/05/18 18:08:08;;;;;;;14.38;2.25;;;;;;;;;;6232415;28;20304;-78
2023/05/18 18:11:13;;;;;;;18.02;1.92;;;;;;;;;;6234230;28;20300;-77
2023/05/18 18:14:19;;;;;;;10.48;1.95;;;;;;;;;;6234841;28;20291;-78
2023/05/18 18:17:23;;;;;;;8.65;1.63;;;;;;;;;;6235428;28;20300;-79
2023/05/18 18:20:35;;;;;;;11.23;1.80;;;;;;;;;;6233471;28;20300;-79
2023/05/18 18:23:41;;;;;;;14.07;2.38;;;;;;;;;;6234571;28;20296;-78
2023/05/18 18:26:47;;;;;;;21.80;2.85;;;;;;;;;;6235779;28;20328;-79
2023/05/18 18:29:53;;;;;;;8.80;2.95;;;;;;;;;;6234627;28;20292;-78
2023/05/18 18:32:58;;;;;;;11.85;4.60;;;;;;;;;;6233227;28;20305;-80
2023/05/18 18:36:06;;;;;;;13.98;3.30;;;;;;;;;;6234967;28;20292;-78
2023/05/18 18:39:12;;;;;;;24.40;4.15;;;;;;;;;;6218766;28;20300;-78
2023/05/18 18:42:18;;;;;;;5.20;1.83;;;;;;;;;;6209712;28;20585;-77